Time;durP1;ratioP1;P1;durP2;ratioP2;P2;SDS_P1;SDS_P2;PMS_P1;PMS_P2;Temp;Humidity;BMP_temperature;BMP_pressure;BME280_temperature;BME280_humidity;BME280_pressure;Samples;Min_cycle;Max_cycle;Signal;HPM_P1;HPM_P2
2023/09/13 00:42:48;;;;;;;60.67;44.90;;;15.80;99.90;;;;;;5433157;25;20963;-82
2023/09/13 01:13:45;;;;;;;58.40;45.43;;;15.60;99.90;;;;;;5611107;24;20245;-83
2023/09/13 01:38:35;;;;;;;58.57;45.67;;;15.30;99.90;;;;;;5616272;24;20386;-84
2023/09/13 02:04:16;;;;;;;75.70;54.63;;;15.20;99.90;;;;;;5550439;24;20521;-81
2023/09/13 02:19:52;;;;;;;74.10;56.20;;;15.20;99.90;;;;;;5602941;24;20318;-82
2023/09/13 03:13:58;;;;;;;76.60;56.93;;;14.80;99.90;;;;;;5815359;23;20205;-84
2023/09/13 03:44:22;;;;;;;77.70;53.13;;;14.60;99.90;;;;;;5683550;24;20177;-83
2023/09/13 04:14:34;;;;;;;88.87;62.43;;;14.20;99.90;;;;;;5796512;23;21317;-83
2023/09/13 04:39:49;;;;;;;100.23;73.63;;;14.60;99.90;;;;;;5568395;24;20620;-84
2023/09/13 05:10:44;;;;;;;95.93;74.03;;;15.20;99.90;;;;;;5693498;24;20325;-83
2023/09/13 05:15:03;;;;;;;89.53;71.10;;;15.40;99.90;;;;;;5697893;24;20568;-84
2023/09/13 05:36:04;;;;;;;72.17;59.67;;;16.40;99.90;;;;;;5950699;23;20573;-86
2023/09/13 06:01:24;;;;;;;61.63;52.33;;;17.30;99.90;;;;;;5909956;23;20216;-85
2023/09/13 06:21:31;;;;;;;50.57;44.37;;;18.30;99.90;;;;;;5756756;24;20198;-86
2023/09/13 06:47:07;;;;;;;44.40;38.87;;;19.80;99.90;;;;;;5824649;24;20193;-84
2023/09/13 07:07:01;;;;;;;37.38;33.33;;;20.70;99.90;;;;;;5948920;23;20476;-88
2023/09/13 07:32:37;;;;;;;29.85;24.83;;;22.30;99.90;;;;;;5731866;24;20199;-85
2023/09/13 07:52:50;;;;;;;28.35;24.60;;;23.30;93.90;;;;;;5654841;24;20265;-86
2023/09/13 08:22:49;;;;;;;20.65;18.45;;;24.20;87.30;;;;;;5819134;24;20455;-86
2023/09/13 08:43:48;;;;;;;17.80;16.02;;;24.90;85.30;;;;;;5578286;25;20352;-86
2023/09/13 09:34:05;;;;;;;14.07;12.70;;;26.20;68.10;;;;;;5635641;24;20472;-86
2023/09/13 10:09:55;;;;;;;15.40;11.35;;;26.80;65.00;;;;;;5865752;24;20316;-88
2023/09/13 10:35:21;;;;;;;12.70;11.60;;;27.20;63.20;;;;;;5732736;24;20218;-84
2023/09/13 11:16:01;;;;;;;12.10;11.00;;;27.80;60.50;;;;;;5982622;23;20253;-89
2023/09/13 11:40:57;;;;;;;12.65;11.30;;;28.20;59.30;;;;;;5840441;24;20657;-86
2023/09/13 12:01:29;;;;;;;12.40;11.02;;;28.50;58.70;;;;;;5761769;24;20319;-85
2023/09/13 14:08:25;;;;;;;10.73;9.80;;;30.60;56.90;;;;;;5735306;24;20746;-84
2023/09/13 15:19:22;;;;;;;11.75;10.63;;;28.50;62.40;;;;;;5714559;24;20335;-84
2023/09/13 15:50:02;;;;;;;11.85;10.38;;;28.30;61.40;;;;;;5849421;23;20714;-82
2023/09/13 16:24:48;;;;;;;13.57;11.02;;;25.50;73.90;;;;;;5760671;23;20515;-86
2023/09/13 16:45:07;;;;;;;14.05;12.63;;;24.10;89.60;;;;;;5784795;23;20500;-84
2023/09/13 17:11:04;;;;;;;20.10;14.38;;;22.60;99.90;;;;;;5857184;23;20396;-84
2023/09/13 18:36:40;;;;;;;18.58;14.10;;;22.50;99.10;;;;;;5622839;24;20514;-84
2023/09/13 18:57:54;;;;;;;18.77;10.98;;;23.90;90.20;;;;;;5829110;24;20194;-87
2023/09/13 19:02:00;;;;;;;16.25;11.32;;;23.60;90.90;;;;;;5706007;24;20560;-85
2023/09/13 19:17:57;;;;;;;13.95;9.57;;;23.20;92.90;;;;;;5744713;24;20218;-86
2023/09/13 19:38:00;;;;;;;13.38;11.90;;;21.00;99.90;;;;;;5633669;24;20208;-86
2023/09/13 20:33:17;;;;;;;21.70;19.23;;;19.60;99.90;;;;;;5787629;24;20196;-85
2023/09/13 20:54:21;;;;;;;18.67;16.43;;;19.60;99.90;;;;;;5716643;24;20205;-84
2023/09/13 22:20:13;;;;;;;24.07;20.17;;;18.60;99.90;;;;;;5821211;23;20848;-84
2023/09/13 22:50:46;;;;;;;19.40;17.27;;;18.80;99.90;;;;;;5920088;23;20214;-83
